Time;durP1;ratioP1;P1;durP2;ratioP2;P2;SDS_P1;SDS_P2;PMS_P1;PMS_P2;Temp;Humidity;BMP_temperature;BMP_pressure;BME280_temperature;BME280_humidity;BME280_pressure;Samples;Min_cycle;Max_cycle;Signal;HPM_P1;HPM_P2
2022/09/25 00:01:17;;;;;;;30.85;23.58;;;13.60;99.90;;;;;;4990563;28;20081;-65
2022/09/25 00:03:44;;;;;;;30.70;24.52;;;13.60;99.90;;;;;;4991968;28;20428;-64
2022/09/25 00:06:20;;;;;;;30.88;24.98;;;13.50;99.90;;;;;;4990384;28;20077;-64
2022/09/25 00:08:48;;;;;;;28.35;22.85;;;13.50;99.90;;;;;;4989561;28;20141;-66
2022/09/25 00:11:19;;;;;;;32.97;26.25;;;13.50;99.90;;;;;;4982771;28;20273;-65
2022/09/25 00:13:47;;;;;;;32.70;23.85;;;13.50;99.90;;;;;;4985028;28;20370;-66
2022/09/25 00:16:18;;;;;;;31.60;24.85;;;13.40;99.90;;;;;;4987639;28;20050;-65
2022/09/25 00:21:52;;;;;;;32.53;24.52;;;13.40;99.90;;;;;;4909899;29;20487;-64
2022/09/25 00:24:20;;;;;;;34.17;25.25;;;13.40;99.90;;;;;;4908732;29;20171;-64
2022/09/25 00:26:47;;;;;;;35.92;27.50;;;13.40;99.90;;;;;;4896546;29;20084;-64
2022/09/25 00:29:17;;;;;;;34.47;26.50;;;13.40;99.90;;;;;;4894884;29;20313;-65
2022/09/25 00:31:44;;;;;;;31.77;25.05;;;13.40;99.90;;;;;;4909239;29;20056;-64
2022/09/25 00:34:11;;;;;;;33.47;27.27;;;13.40;99.90;;;;;;4910457;29;20063;-65
2022/09/25 00:36:39;;;;;;;38.70;24.50;;;13.30;99.90;;;;;;4907401;29;20084;-65
2022/09/25 00:39:06;;;;;;;33.58;25.63;;;13.30;99.90;;;;;;4907326;29;20499;-65
2022/09/25 00:41:34;;;;;;;35.15;28.40;;;13.30;99.90;;;;;;4911602;29;20075;-66
2022/09/25 00:44:03;;;;;;;34.75;25.58;;;13.20;99.90;;;;;;4909345;29;20044;-65
2022/09/25 00:46:41;;;;;;;35.95;27.05;;;13.20;99.90;;;;;;4909535;29;20084;-65
2022/09/25 00:49:13;;;;;;;36.88;26.13;;;13.20;99.90;;;;;;4905410;29;20055;-64
2022/09/25 00:51:52;;;;;;;33.95;25.10;;;13.20;99.90;;;;;;4917305;28;20403;-64
2022/09/25 00:54:26;;;;;;;36.63;25.55;;;13.20;99.90;;;;;;5005523;28;20527;-65
2022/09/25 00:56:55;;;;;;;30.17;23.27;;;13.20;99.90;;;;;;4999998;28;20043;-65
2022/09/25 00:59:32;;;;;;;29.70;23.35;;;13.20;99.90;;;;;;4990018;28;20061;-66
2022/09/25 01:02:00;;;;;;;36.65;26.17;;;13.20;99.90;;;;;;4989303;28;20114;-65
2022/09/25 01:04:32;;;;;;;32.88;25.55;;;13.20;99.90;;;;;;4989447;28;20038;-66
2022/09/25 01:07:00;;;;;;;33.13;25.33;;;13.20;99.90;;;;;;4994229;28;20086;-66
2022/09/25 01:09:28;;;;;;;34.15;25.10;;;13.20;99.90;;;;;;4984981;28;20054;-65
2022/09/25 01:11:55;;;;;;;31.30;22.98;;;13.20;99.90;;;;;;4988388;28;20046;-66
2022/09/25 01:14:23;;;;;;;36.05;26.98;;;13.20;99.90;;;;;;4987062;28;20101;-65
2022/09/25 01:17:10;;;;;;;34.58;26.38;;;13.20;99.90;;;;;;4982093;28;20038;-66
2022/09/25 01:20:07;;;;;;;34.58;24.55;;;13.20;99.90;;;;;;4983937;28;20149;-66
2022/09/25 01:22:55;;;;;;;34.17;24.35;;;13.20;99.90;;;;;;4986975;28;20039;-66
2022/09/25 01:25:27;;;;;;;30.52;23.23;;;13.20;99.90;;;;;;4990284;28;20460;-65
2022/09/25 01:28:30;;;;;;;31.00;24.08;;;13.20;99.90;;;;;;4986131;28;20065;-66
2022/09/25 01:31:08;;;;;;;33.00;24.25;;;13.10;99.90;;;;;;4947776;29;20057;-65
2022/09/25 01:33:49;;;;;;;33.97;25.52;;;13.10;99.90;;;;;;4953876;28;20040;-65
2022/09/25 01:36:32;;;;;;;30.20;22.23;;;13.10;99.90;;;;;;4933798;28;20047;-65
2022/09/25 01:39:40;;;;;;;28.50;22.17;;;13.10;99.90;;;;;;4956896;28;20097;-65
2022/09/25 01:42:20;;;;;;;29.58;22.02;;;13.10;99.90;;;;;;4897345;29;20106;-66
2022/09/25 01:45:06;;;;;;;32.42;24.05;;;13.10;99.90;;;;;;4954983;28;20053;-65
2022/09/25 01:47:37;;;;;;;35.53;24.55;;;13.10;99.90;;;;;;4952192;28;20055;-66
2022/09/25 01:50:11;;;;;;;33.65;25.38;;;13.20;99.90;;;;;;4927882;29;20086;-66
2022/09/25 01:52:43;;;;;;;32.28;23.92;;;13.10;99.90;;;;;;4932319;29;20070;-66
2022/09/25 01:55:26;;;;;;;33.90;25.27;;;13.10;99.90;;;;;;4950275;28;20501;-63
2022/09/25 01:58:07;;;;;;;31.38;23.95;;;13.00;99.90;;;;;;4937069;29;20057;-66
2022/09/25 02:00:39;;;;;;;45.80;31.83;;;13.10;99.90;;;;;;4949101;29;20047;-65
2022/09/25 02:03:17;;;;;;;34.40;26.40;;;13.10;99.90;;;;;;4951974;29;20051;-67
2022/09/25 02:05:52;;;;;;;31.20;22.90;;;13.10;99.90;;;;;;4954248;28;20046;-64
2022/09/25 02:08:28;;;;;;;29.00;22.67;;;13.10;99.90;;;;;;4989902;28;20093;-66
2022/09/25 02:11:01;;;;;;;31.15;22.85;;;13.10;99.90;;;;;;4958187;28;20047;-65
2022/09/25 02:13:37;;;;;;;32.15;23.73;;;13.10;99.90;;;;;;4993949;28;20516;-64
2022/09/25 02:16:28;;;;;;;32.25;22.55;;;13.10;99.90;;;;;;4992615;28;20054;-65
2022/09/25 02:22:08;;;;;;;34.85;23.75;;;13.00;99.90;;;;;;4992063;28;20042;-63
2022/09/25 02:25:04;;;;;;;28.48;22.23;;;13.00;99.90;;;;;;4993762;28;20405;-66
2022/09/25 02:27:32;;;;;;;28.42;22.27;;;13.00;99.90;;;;;;4989088;28;20051;-64
2022/09/25 02:30:00;;;;;;;30.25;21.90;;;13.00;99.90;;;;;;4992285;28;20042;-65
2022/09/25 02:32:32;;;;;;;28.15;20.63;;;13.00;99.90;;;;;;4992180;28;20078;-66
2022/09/25 02:34:59;;;;;;;25.35;20.25;;;13.00;99.90;;;;;;5008361;28;20046;-67
2022/09/25 02:37:29;;;;;;;28.00;21.00;;;12.90;99.90;;;;;;4992072;28;20401;-64
2022/09/25 02:40:00;;;;;;;28.42;20.77;;;12.90;99.90;;;;;;4992173;28;20054;-65
2022/09/25 02:42:57;;;;;;;24.65;20.02;;;12.90;99.90;;;;;;4992837;28;20085;-65
2022/09/25 02:45:49;;;;;;;27.13;20.77;;;12.80;99.90;;;;;;4991712;28;20038;-66
2022/09/25 02:48:17;;;;;;;25.30;19.35;;;12.80;99.90;;;;;;4989244;28;20038;-64
2022/09/25 02:51:22;;;;;;;27.33;20.33;;;12.80;99.90;;;;;;4993040;28;20547;-65
2022/09/25 02:54:11;;;;;;;24.80;18.73;;;12.80;99.90;;;;;;4931257;29;20066;-63
2022/09/25 02:57:03;;;;;;;25.35;20.10;;;12.80;99.90;;;;;;4904856;29;20060;-66
2022/09/25 02:59:38;;;;;;;25.38;19.35;;;12.80;99.90;;;;;;4932779;29;20052;-64
2022/09/25 03:02:07;;;;;;;23.75;18.35;;;12.80;99.90;;;;;;4932397;29;20503;-66
2022/09/25 03:04:36;;;;;;;26.80;20.70;;;12.80;99.90;;;;;;4932538;29;20055;-64
2022/09/25 03:07:05;;;;;;;24.48;19.17;;;12.80;99.90;;;;;;4932272;29;20050;-64
2022/09/25 03:09:35;;;;;;;24.98;19.35;;;12.80;99.90;;;;;;4932464;29;20055;-65
2022/09/25 03:12:06;;;;;;;24.83;19.35;;;12.90;99.90;;;;;;4932240;29;20048;-65
2022/09/25 03:14:33;;;;;;;27.40;20.70;;;12.90;99.90;;;;;;4932680;29;20055;-65
2022/09/25 03:17:03;;;;;;;32.40;21.67;;;12.90;99.90;;;;;;4931788;29;20047;-65
2022/09/25 03:19:33;;;;;;;32.03;22.63;;;12.90;99.90;;;;;;4931276;29;20074;-66
2022/09/25 03:22:01;;;;;;;31.23;22.05;;;12.90;99.90;;;;;;4926580;29;20530;-69
2022/09/25 03:24:28;;;;;;;28.48;21.42;;;12.90;99.90;;;;;;4932311;29;20115;-65
2022/09/25 03:26:56;;;;;;;32.35;23.58;;;12.90;99.90;;;;;;4931713;29;20629;-66
2022/09/25 03:29:23;;;;;;;30.40;21.67;;;12.90;99.90;;;;;;4958450;28;20046;-67
2022/09/25 03:31:51;;;;;;;29.10;23.13;;;12.90;99.90;;;;;;4979969;28;20508;-65
2022/09/25 03:34:18;;;;;;;30.42;23.08;;;13.00;99.90;;;;;;4990583;28;20058;-65
2022/09/25 03:36:46;;;;;;;30.50;22.13;;;13.00;99.90;;;;;;4989632;28;20113;-65
2022/09/25 03:39:16;;;;;;;38.00;24.92;;;13.00;99.90;;;;;;5006791;28;20039;-65
2022/09/25 03:41:44;;;;;;;37.53;24.50;;;13.00;99.90;;;;;;4989504;28;20081;-64
2022/09/25 03:44:11;;;;;;;35.30;24.77;;;13.00;99.90;;;;;;4990798;28;20579;-65
2022/09/25 03:46:39;;;;;;;35.55;25.50;;;13.00;99.90;;;;;;5005597;28;20053;-66
2022/09/25 03:49:06;;;;;;;35.33;24.10;;;13.00;99.90;;;;;;4972971;28;20497;-65
2022/09/25 03:51:34;;;;;;;37.95;25.27;;;13.00;99.90;;;;;;4983674;28;20292;-64
2022/09/25 03:54:02;;;;;;;33.67;23.10;;;13.00;99.90;;;;;;4989006;28;20042;-64
2022/09/25 03:56:31;;;;;;;31.80;23.67;;;13.00;99.90;;;;;;4985638;28;20121;-64
2022/09/25 03:58:59;;;;;;;37.30;24.80;;;13.00;99.90;;;;;;4991024;28;20034;-64
2022/09/25 04:01:27;;;;;;;35.92;25.80;;;13.10;99.90;;;;;;4989407;28;20045;-65
2022/09/25 04:03:55;;;;;;;38.47;25.73;;;13.00;99.90;;;;;;4986865;28;20560;-66
2022/09/25 04:06:24;;;;;;;33.90;23.45;;;13.10;99.90;;;;;;5004524;28;20413;-66
2022/09/25 04:08:52;;;;;;;33.72;23.77;;;13.10;99.90;;;;;;4985503;28;20039;-65
2022/09/25 04:11:22;;;;;;;40.10;25.90;;;13.10;99.90;;;;;;4971224;28;20412;-65
2022/09/25 04:13:51;;;;;;;39.22;24.75;;;13.00;99.90;;;;;;5002733;28;20034;-65
2022/09/25 04:16:22;;;;;;;38.05;25.73;;;13.00;99.90;;;;;;5003782;28;20463;-68
2022/09/25 04:18:50;;;;;;;37.13;25.50;;;13.00;99.90;;;;;;4972481;28;20046;-65
2022/09/25 04:21:17;;;;;;;31.48;22.70;;;13.00;99.90;;;;;;4977913;28;20509;-67
2022/09/25 04:24:47;;;;;;;36.72;24.27;;;13.00;99.90;;;;;;4989339;28;20407;-64
2022/09/25 04:26:33;;;;;;;37.22;24.63;;;12.90;99.90;;;;;;4991248;28;20516;-65
2022/09/25 04:29:00;;;;;;;33.42;23.63;;;13.00;99.90;;;;;;4988041;28;20057;-65
2022/09/25 04:31:29;;;;;;;38.35;26.30;;;13.00;99.90;;;;;;4977038;28;20042;-65
2022/09/25 04:33:56;;;;;;;34.25;24.13;;;13.00;99.90;;;;;;4988072;28;20070;-67
2022/09/25 04:36:23;;;;;;;34.33;24.35;;;13.00;99.90;;;;;;4993925;28;20048;-66
2022/09/25 04:38:51;;;;;;;31.45;23.23;;;13.00;99.90;;;;;;4988828;28;20042;-64
2022/09/25 04:41:18;;;;;;;34.75;23.98;;;12.90;99.90;;;;;;4980199;28;20038;-65
2022/09/25 04:43:46;;;;;;;34.67;23.70;;;12.90;99.90;;;;;;5004684;28;20034;-65
2022/09/25 04:46:16;;;;;;;33.00;23.13;;;12.90;99.90;;;;;;4986970;28;20504;-65
2022/09/25 04:48:49;;;;;;;32.47;21.30;;;12.90;99.90;;;;;;4990033;28;20039;-67
2022/09/25 04:51:16;;;;;;;33.85;24.13;;;12.90;99.90;;;;;;5005507;28;20100;-65
2022/09/25 04:53:43;;;;;;;36.25;23.90;;;12.90;99.90;;;;;;4990564;28;20045;-66
2022/09/25 04:56:10;;;;;;;34.35;24.05;;;12.90;99.90;;;;;;4973304;28;20081;-66
2022/09/25 04:58:47;;;;;;;32.35;23.23;;;12.80;99.90;;;;;;4988469;28;20527;-66
2022/09/25 05:01:15;;;;;;;31.38;22.80;;;12.80;99.90;;;;;;4987919;28;20046;-66
2022/09/25 05:03:46;;;;;;;32.75;22.50;;;12.80;99.90;;;;;;4977227;28;20042;-66
2022/09/25 05:06:13;;;;;;;36.55;24.40;;;12.80;99.90;;;;;;4977405;28;20563;-66
2022/09/25 05:08:40;;;;;;;35.03;24.20;;;12.80;99.90;;;;;;4977457;28;20051;-66
2022/09/25 05:11:07;;;;;;;35.80;24.05;;;12.70;99.90;;;;;;4987298;28;20070;-67
2022/09/25 05:13:35;;;;;;;35.75;23.20;;;12.80;99.90;;;;;;4987966;28;20505;-64
2022/09/25 05:16:02;;;;;;;35.90;23.95;;;12.70;99.90;;;;;;4986125;28;20043;-64
2022/09/25 05:18:29;;;;;;;35.35;23.40;;;12.70;99.90;;;;;;4988116;28;20054;-66
2022/09/25 05:21:01;;;;;;;36.20;25.42;;;12.70;99.90;;;;;;4986460;28;20043;-64
2022/09/25 05:23:28;;;;;;;36.08;22.60;;;12.70;99.90;;;;;;4981482;28;20050;-66
2022/09/25 05:26:02;;;;;;;34.40;23.88;;;12.70;99.90;;;;;;4985865;28;20822;-64
2022/09/25 05:28:30;;;;;;;31.38;22.55;;;12.70;99.90;;;;;;4983956;28;20053;-65
2022/09/25 05:31:02;;;;;;;34.83;23.58;;;12.80;99.90;;;;;;5006248;28;20555;-65
2022/09/25 05:33:34;;;;;;;32.63;23.23;;;12.80;99.90;;;;;;4991708;28;20069;-65
2022/09/25 05:36:06;;;;;;;35.67;24.52;;;12.80;99.90;;;;;;4994629;28;20049;-66
2022/09/25 05:38:36;;;;;;;33.22;23.38;;;12.90;99.90;;;;;;4994258;28;20043;-64
2022/09/25 05:41:08;;;;;;;33.22;23.17;;;12.90;99.90;;;;;;4987773;28;20057;-66
2022/09/25 05:43:41;;;;;;;30.65;21.40;;;12.90;99.90;;;;;;4991062;28;20093;-66
2022/09/25 05:46:09;;;;;;;29.10;20.30;;;13.00;99.90;;;;;;4990788;28;20042;-64
2022/09/25 05:48:37;;;;;;;32.08;22.63;;;13.00;99.90;;;;;;4993113;28;20575;-65
2022/09/25 05:51:05;;;;;;;29.77;21.58;;;13.10;99.90;;;;;;4999043;28;20137;-65
2022/09/25 05:53:32;;;;;;;32.30;22.08;;;13.10;99.90;;;;;;5002573;28;20051;-66
2022/09/25 05:56:02;;;;;;;29.70;21.65;;;13.10;99.90;;;;;;4992651;28;20049;-65
2022/09/25 05:58:30;;;;;;;30.20;21.85;;;13.10;99.90;;;;;;4960597;28;20065;-65
2022/09/25 06:01:03;;;;;;;29.92;21.48;;;13.10;99.90;;;;;;4990648;28;20616;-68
2022/09/25 06:03:31;;;;;;;30.52;21.52;;;13.10;99.90;;;;;;4990547;28;20050;-65
2022/09/25 06:05:59;;;;;;;33.72;22.95;;;13.10;99.90;;;;;;4991087;28;20049;-64
2022/09/25 06:08:29;;;;;;;28.52;21.45;;;13.20;99.90;;;;;;4993923;28;20049;-65
2022/09/25 06:10:59;;;;;;;28.38;21.15;;;13.20;99.90;;;;;;4993606;28;20043;-66
2022/09/25 06:13:28;;;;;;;28.40;20.27;;;13.20;99.90;;;;;;4992779;28;20052;-65
2022/09/25 06:15:56;;;;;;;32.17;21.60;;;13.30;99.90;;;;;;4976250;28;20181;-66
2022/09/25 06:18:24;;;;;;;27.17;19.05;;;13.30;99.90;;;;;;5009004;28;20488;-65
2022/09/25 06:21:01;;;;;;;31.33;21.58;;;13.30;99.90;;;;;;4974923;28;20050;-65
2022/09/25 06:23:29;;;;;;;34.10;22.15;;;13.40;99.90;;;;;;4991782;28;20052;-65
2022/09/25 06:26:04;;;;;;;32.10;21.95;;;13.40;99.90;;;;;;4978783;28;20512;-66
2022/09/25 06:28:32;;;;;;;30.95;20.83;;;13.40;99.90;;;;;;4985227;28;20508;-65
2022/09/25 06:31:03;;;;;;;28.98;20.00;;;13.50;99.90;;;;;;4995836;28;20066;-66
2022/09/25 06:33:31;;;;;;;33.38;21.25;;;13.50;99.90;;;;;;4990085;28;20058;-64
2022/09/25 06:35:59;;;;;;;29.60;20.40;;;13.60;99.90;;;;;;4985958;28;20054;-65
2022/09/25 06:38:27;;;;;;;31.85;22.13;;;13.50;99.90;;;;;;4990630;28;20535;-65
2022/09/25 06:40:54;;;;;;;31.45;21.40;;;13.60;99.90;;;;;;4988666;28;20397;-65
2022/09/25 06:43:26;;;;;;;32.78;21.48;;;13.60;99.90;;;;;;4991117;28;20740;-64
2022/09/25 06:45:54;;;;;;;36.38;22.20;;;13.60;99.90;;;;;;4971585;28;20058;-66
2022/09/25 06:48:21;;;;;;;34.45;22.17;;;13.60;99.90;;;;;;4983702;28;20516;-65
2022/09/25 06:50:51;;;;;;;35.72;22.40;;;13.60;99.90;;;;;;4991894;28;20492;-65
2022/09/25 06:53:20;;;;;;;39.65;24.38;;;13.60;99.90;;;;;;4990826;28;20053;-66
2022/09/25 06:55:48;;;;;;;37.83;24.00;;;13.60;99.90;;;;;;5001828;28;20053;-66
2022/09/25 06:58:21;;;;;;;35.95;23.02;;;13.60;99.90;;;;;;4989145;28;20047;-66
2022/09/25 07:00:53;;;;;;;39.47;23.27;;;13.70;99.90;;;;;;4990987;28;20038;-65
2022/09/25 07:06:09;;;;;;;36.95;21.80;;;13.80;99.90;;;;;;4990383;28;20759;-65
2022/09/25 07:08:37;;;;;;;34.90;22.33;;;13.80;99.90;;;;;;4991039;28;20076;-67
2022/09/25 07:11:05;;;;;;;38.40;23.45;;;13.90;99.90;;;;;;4989480;28;20148;-66
2022/09/25 07:13:34;;;;;;;35.17;21.42;;;13.90;99.90;;;;;;4987476;28;20042;-65
2022/09/25 07:16:04;;;;;;;35.15;21.80;;;14.00;99.90;;;;;;4970569;28;20050;-66
2022/09/25 07:18:32;;;;;;;34.72;21.75;;;14.00;99.90;;;;;;4983368;28;20042;-65
2022/09/25 07:21:05;;;;;;;32.60;20.73;;;14.10;99.90;;;;;;4957392;28;20053;-65
2022/09/25 07:23:33;;;;;;;34.78;21.65;;;14.00;99.90;;;;;;4990554;28;20421;-65
2022/09/25 07:26:06;;;;;;;33.20;20.40;;;14.10;99.90;;;;;;4985901;28;20512;-66
2022/09/25 07:28:34;;;;;;;34.80;21.55;;;14.10;99.90;;;;;;5005616;28;20054;-67
2022/09/25 07:31:13;;;;;;;32.95;20.35;;;14.20;99.90;;;;;;4989323;28;20077;-66
2022/09/25 07:33:41;;;;;;;32.00;20.23;;;14.30;99.90;;;;;;4991588;28;20050;-66
2022/09/25 07:36:09;;;;;;;33.80;20.95;;;14.40;99.90;;;;;;4983551;28;20050;-67
2022/09/25 07:38:37;;;;;;;33.05;20.45;;;14.60;99.90;;;;;;4981011;28;20544;-67
2022/09/25 07:41:06;;;;;;;32.35;20.85;;;14.70;99.90;;;;;;4987496;28;20052;-64
2022/09/25 07:43:37;;;;;;;32.45;18.95;;;14.70;99.90;;;;;;4990201;28;20102;-65
2022/09/25 07:46:06;;;;;;;33.25;19.23;;;15.00;99.90;;;;;;4989080;28;20073;-63
2022/09/25 07:48:33;;;;;;;32.83;19.20;;;15.20;99.90;;;;;;4988582;28;20053;-65
2022/09/25 07:51:02;;;;;;;32.45;19.80;;;15.40;99.90;;;;;;4989297;28;20100;-64
2022/09/25 07:53:30;;;;;;;30.27;19.33;;;15.60;99.90;;;;;;4986565;28;20501;-68
2022/09/25 07:56:01;;;;;;;32.40;20.58;;;15.70;99.90;;;;;;4983568;28;20047;-67
2022/09/25 07:58:36;;;;;;;32.85;20.40;;;15.70;99.90;;;;;;4990111;28;20053;-65
2022/09/25 08:01:06;;;;;;;30.15;18.67;;;15.80;99.90;;;;;;4999164;28;20042;-65
2022/09/25 08:03:34;;;;;;;29.88;18.90;;;15.90;99.90;;;;;;4986161;28;20522;-65
2022/09/25 08:06:10;;;;;;;27.90;18.92;;;16.00;99.90;;;;;;4988478;28;20076;-67
2022/09/25 08:08:42;;;;;;;31.15;19.17;;;16.20;99.90;;;;;;4985504;28;20117;-66
2022/09/25 08:11:15;;;;;;;30.70;18.58;;;16.30;99.90;;;;;;4985112;28;20050;-69
2022/09/25 08:13:44;;;;;;;28.50;18.48;;;16.30;99.90;;;;;;4986673;28;20410;-65
2022/09/25 08:16:14;;;;;;;31.15;19.77;;;16.40;99.90;;;;;;4997388;28;20050;-68
2022/09/25 08:18:45;;;;;;;29.75;19.88;;;16.40;99.90;;;;;;4988559;28;20520;-66
2022/09/25 08:21:17;;;;;;;26.10;17.55;;;16.40;99.90;;;;;;4990340;28;20457;-63
2022/09/25 08:23:49;;;;;;;34.80;20.15;;;16.20;99.90;;;;;;5003456;28;20038;-68
2022/09/25 08:26:19;;;;;;;30.80;20.13;;;16.10;99.90;;;;;;4988121;28;20046;-66
2022/09/25 08:28:47;;;;;;;32.42;21.27;;;16.10;99.90;;;;;;4989842;28;20042;-65
2022/09/25 08:31:15;;;;;;;33.08;20.67;;;15.80;99.90;;;;;;4990514;28;20049;-67
2022/09/25 08:33:47;;;;;;;31.30;19.27;;;15.80;99.90;;;;;;5003538;28;20088;-65
2022/09/25 08:36:15;;;;;;;34.08;20.38;;;15.70;99.90;;;;;;4988289;28;20112;-67
2022/09/25 08:38:43;;;;;;;31.13;19.65;;;15.80;99.90;;;;;;4973988;28;20057;-68
2022/09/25 08:41:40;;;;;;;32.30;20.27;;;16.00;99.90;;;;;;4989389;28;20053;-65
2022/09/25 08:44:26;;;;;;;28.42;18.52;;;16.20;99.90;;;;;;4984719;28;20057;-66
2022/09/25 08:50:13;;;;;;;27.52;17.95;;;16.70;99.90;;;;;;5001047;28;20078;-66
2022/09/25 08:52:44;;;;;;;27.25;18.73;;;16.80;99.90;;;;;;4994613;28;20104;-65
2022/09/25 08:58:28;;;;;;;26.40;17.90;;;16.60;99.90;;;;;;4983835;28;20672;-66
2022/09/25 09:01:04;;;;;;;27.13;17.60;;;16.40;99.90;;;;;;4974413;28;20126;-67
2022/09/25 09:03:35;;;;;;;28.30;17.15;;;16.10;99.90;;;;;;5002400;28;20100;-66
2022/09/25 09:06:06;;;;;;;29.83;18.20;;;15.90;99.90;;;;;;4986211;28;20041;-66
2022/09/25 09:08:36;;;;;;;31.07;19.00;;;15.90;99.90;;;;;;4992906;28;20030;-66
2022/09/25 09:11:21;;;;;;;30.65;19.23;;;15.80;99.90;;;;;;4993123;28;20050;-67
2022/09/25 09:14:05;;;;;;;29.40;18.90;;;15.80;99.90;;;;;;4975829;28;20390;-66
2022/09/25 09:16:59;;;;;;;25.90;17.30;;;15.80;99.90;;;;;;4998723;28;20058;-65
2022/09/25 09:19:27;;;;;;;29.58;17.90;;;15.90;99.90;;;;;;4976040;28;20039;-66
2022/09/25 09:22:08;;;;;;;29.42;18.55;;;15.90;99.90;;;;;;4994503;28;20113;-65
2022/09/25 09:24:53;;;;;;;25.92;17.15;;;16.00;99.90;;;;;;4987067;28;20042;-64
2022/09/25 09:27:45;;;;;;;26.33;17.15;;;16.00;99.90;;;;;;5001612;28;20412;-65
2022/09/25 09:30:40;;;;;;;26.42;17.67;;;16.20;99.90;;;;;;4992622;28;20456;-67
2022/09/25 09:33:33;;;;;;;26.60;18.83;;;16.50;99.90;;;;;;4992300;28;20047;-67
2022/09/25 09:36:05;;;;;;;;;;;16.70;99.90;;;;;;4990709;28;20053;-67
2022/09/25 09:39:11;;;;;;;23.75;15.52;;;16.80;99.90;;;;;;4991356;28;20281;-67
2022/09/25 09:41:53;;;;;;;25.80;16.73;;;17.00;99.90;;;;;;5008112;28;20046;-66
2022/09/25 09:44:38;;;;;;;24.30;15.73;;;17.10;99.90;;;;;;4992323;28;20039;-66
2022/09/25 09:47:38;;;;;;;22.67;16.42;;;17.20;99.90;;;;;;4992139;28;20563;-66
2022/09/25 09:50:17;;;;;;;20.73;14.98;;;17.30;99.90;;;;;;4992833;28;20803;-67
2022/09/25 09:52:49;;;;;;;24.20;16.02;;;17.40;99.90;;;;;;5008090;28;20125;-67
2022/09/25 09:55:41;;;;;;;25.30;16.55;;;17.60;99.90;;;;;;4992512;28;20047;-66
2022/09/25 09:58:24;;;;;;;21.95;15.23;;;17.90;99.90;;;;;;4990539;28;20054;-66
2022/09/25 10:00:51;;;;;;;20.35;14.95;;;18.10;99.90;;;;;;4978138;28;20042;-68
2022/09/25 10:03:26;;;;;;;22.02;15.43;;;18.50;99.90;;;;;;4991918;28;20138;-66
2022/09/25 10:06:01;;;;;;;24.67;15.48;;;18.60;99.90;;;;;;4990226;28;20405;-68
2022/09/25 10:08:29;;;;;;;19.35;14.35;;;18.70;99.90;;;;;;4982060;28;20055;-68
2022/09/25 10:10:58;;;;;;;20.45;14.02;;;18.80;99.90;;;;;;4991313;28;20039;-66
2022/09/25 10:13:31;;;;;;;17.75;13.20;;;18.70;99.90;;;;;;4992932;28;20423;-66
2022/09/25 10:16:03;;;;;;;19.80;14.52;;;18.80;99.90;;;;;;4980372;28;20523;-68
2022/09/25 10:18:52;;;;;;;22.42;15.25;;;19.10;99.90;;;;;;4992063;28;20480;-67
2022/09/25 10:21:23;;;;;;;17.73;13.25;;;19.10;99.90;;;;;;4980920;28;20034;-66
2022/09/25 10:23:52;;;;;;;16.77;12.43;;;19.30;99.90;;;;;;4987527;28;20046;-66
2022/09/25 10:26:37;;;;;;;18.10;13.40;;;19.60;99.90;;;;;;4986249;28;20118;-67
2022/09/25 10:29:25;;;;;;;17.23;12.52;;;19.70;99.90;;;;;;4992488;28;20039;-68
2022/09/25 10:32:02;;;;;;;16.70;12.77;;;19.70;99.90;;;;;;4984931;28;20056;-67
2022/09/25 10:34:30;;;;;;;16.33;12.52;;;20.00;99.90;;;;;;4991194;28;20043;-67
2022/09/25 10:37:19;;;;;;;15.80;12.25;;;20.40;99.90;;;;;;4973923;28;20456;-66
2022/09/25 10:40:01;;;;;;;17.10;13.00;;;20.90;99.90;;;;;;4989228;28;20049;-66
2022/09/25 10:42:38;;;;;;;16.00;12.15;;;21.20;99.90;;;;;;4991118;28;20092;-66
2022/09/25 10:45:27;;;;;;;15.93;10.35;;;21.50;99.90;;;;;;4978376;28;20054;-66
2022/09/25 10:50:41;;;;;;;13.45;10.80;;;20.70;99.90;;;;;;4993187;28;20046;-67
2022/09/25 10:53:28;;;;;;;13.15;10.98;;;20.60;99.90;;;;;;4990678;28;20046;-67
2022/09/25 10:56:04;;;;;;;14.40;10.50;;;20.50;99.90;;;;;;4989559;28;20080;-67
2022/09/25 10:58:40;;;;;;;12.90;9.90;;;20.20;99.90;;;;;;4971313;28;20061;-66
2022/09/25 11:01:12;;;;;;;15.23;11.32;;;20.00;99.90;;;;;;4995182;28;20034;-66
2022/09/25 11:03:44;;;;;;;17.25;11.10;;;20.20;99.90;;;;;;4981168;28;20042;-65
2022/09/25 11:06:28;;;;;;;13.75;10.98;;;20.30;99.90;;;;;;4974341;28;20047;-68
2022/09/25 11:09:16;;;;;;;14.23;11.00;;;20.40;99.90;;;;;;4982968;28;20516;-67
2022/09/25 11:11:46;;;;;;;14.13;10.57;;;20.30;99.90;;;;;;4990936;28;20081;-66
2022/09/25 11:14:34;;;;;;;13.65;10.57;;;20.20;99.90;;;;;;4986830;28;20047;-66
2022/09/25 11:17:08;;;;;;;11.93;8.85;;;20.40;99.90;;;;;;4988670;28;20120;-66
2022/09/25 11:19:37;;;;;;;9.38;8.13;;;20.90;99.90;;;;;;4965246;28;20038;-66
2022/09/25 11:22:17;;;;;;;13.00;9.45;;;21.00;99.90;;;;;;5004704;28;20117;-66
2022/09/25 11:25:06;;;;;;;9.82;7.70;;;21.20;99.90;;;;;;4985712;28;20050;-66
2022/09/25 11:27:42;;;;;;;8.95;7.38;;;21.50;99.90;;;;;;4986380;28;20109;-67
2022/09/25 11:30:16;;;;;;;9.15;7.72;;;21.80;99.90;;;;;;4986557;28;20472;-65
2022/09/25 11:32:49;;;;;;;9.02;7.72;;;22.20;99.90;;;;;;4989461;28;20129;-65
2022/09/25 11:35:44;;;;;;;9.90;8.48;;;22.00;99.90;;;;;;4992117;28;20493;-66
2022/09/25 11:41:56;;;;;;;7.63;5.75;;;21.60;99.90;;;;;;4963438;28;20050;-68
2022/09/25 11:44:33;;;;;;;16.70;11.93;;;21.20;99.90;;;;;;4991974;28;20042;-65
2022/09/25 11:47:05;;;;;;;9.35;7.55;;;21.10;99.90;;;;;;4990972;28;20398;-65
2022/09/25 11:49:40;;;;;;;9.38;7.35;;;20.40;99.90;;;;;;4984977;28;20078;-66
2022/09/25 11:52:36;;;;;;;10.15;8.35;;;19.80;99.90;;;;;;4995142;28;20050;-65
2022/09/25 11:55:22;;;;;;;10.38;8.68;;;19.00;99.90;;;;;;4985477;28;20099;-67
2022/09/25 11:57:55;;;;;;;10.05;8.38;;;17.60;99.90;;;;;;4985276;28;20129;-66
2022/09/25 12:00:27;;;;;;;16.58;9.10;;;16.80;99.90;;;;;;4967209;28;20055;-66
2022/09/25 12:03:13;;;;;;;11.40;8.85;;;16.10;99.90;;;;;;4988727;28;20054;-66
2022/09/25 12:06:00;;;;;;;10.50;7.00;;;15.80;99.90;;;;;;4976542;28;20038;-66
2022/09/25 12:08:56;;;;;;;10.73;6.43;;;15.70;99.90;;;;;;4985079;28;20140;-64
2022/09/25 12:11:44;;;;;;;8.82;6.63;;;15.90;99.90;;;;;;4989945;28;20146;-65
2022/09/25 12:14:30;;;;;;;8.10;5.60;;;16.30;99.90;;;;;;5000871;28;20043;-65
2022/09/25 12:17:31;;;;;;;7.53;5.25;;;16.70;99.90;;;;;;4991463;28;20072;-70
2022/09/25 12:20:22;;;;;;;7.07;5.20;;;16.70;99.90;;;;;;4989849;28;20501;-67
2022/09/25 12:23:25;;;;;;;8.20;6.00;;;16.70;99.90;;;;;;4988740;28;20105;-67
2022/09/25 12:26:39;;;;;;;7.32;5.20;;;16.50;99.90;;;;;;4998707;28;20058;-67
2022/09/25 12:29:18;;;;;;;6.57;4.90;;;16.70;99.90;;;;;;4977681;28;20057;-65
2022/09/25 12:32:13;;;;;;;9.88;6.20;;;17.20;99.90;;;;;;4981729;28;20042;-65
2022/09/25 12:34:55;;;;;;;8.68;6.20;;;17.60;99.90;;;;;;4989832;28;20046;-66
2022/09/25 12:37:52;;;;;;;9.68;6.47;;;18.20;99.90;;;;;;4988330;28;20038;-67
2022/09/25 12:40:42;;;;;;;10.30;8.55;;;18.70;99.90;;;;;;4989677;28;20058;-67
2022/09/25 12:43:17;;;;;;;11.68;8.85;;;19.80;99.90;;;;;;4990289;28;20046;-65
2022/09/25 12:45:54;;;;;;;12.85;8.90;;;20.90;99.90;;;;;;4989172;28;20045;-66
2022/09/25 12:48:44;;;;;;;8.68;7.53;;;22.10;99.90;;;;;;4988614;28;20368;-66
2022/09/25 12:51:33;;;;;;;9.98;8.75;;;23.60;99.90;;;;;;4987345;28;20062;-67
2022/09/25 12:54:05;;;;;;;9.07;8.18;;;24.40;99.90;;;;;;5005285;28;20633;-67
2022/09/25 12:56:47;;;;;;;9.30;8.30;;;26.20;99.90;;;;;;4989285;28;20057;-66
2022/09/25 12:59:22;;;;;;;10.10;8.43;;;27.10;99.90;;;;;;4992917;28;20046;-66
2022/09/25 13:02:11;;;;;;;8.98;8.07;;;27.70;99.90;;;;;;4984430;28;20054;-68
2022/09/25 13:04:53;;;;;;;9.38;8.43;;;27.90;99.90;;;;;;5000069;28;20038;-67
2022/09/25 13:07:32;;;;;;;8.95;8.10;;;27.00;99.90;;;;;;4989526;28;20536;-68
2022/09/25 13:10:29;;;;;;;9.43;8.52;;;25.40;99.90;;;;;;4989525;28;20092;-67
2022/09/25 13:13:00;;;;;;;10.57;8.90;;;23.80;99.90;;;;;;4977289;28;20488;-66
2022/09/25 13:15:31;;;;;;;8.40;7.50;;;22.60;99.90;;;;;;4984203;28;20094;-66
2022/09/25 13:17:58;;;;;;;9.82;8.82;;;21.80;99.90;;;;;;4989440;28;20404;-65
2022/09/25 13:20:25;;;;;;;9.32;8.43;;;21.10;99.90;;;;;;4990303;28;20054;-65
2022/09/25 13:23:13;;;;;;;12.15;9.80;;;20.10;99.90;;;;;;5001089;28;20042;-67
2022/09/25 13:25:45;;;;;;;9.70;8.70;;;19.10;99.90;;;;;;4983177;28;20048;-66
2022/09/25 13:28:25;;;;;;;8.77;7.82;;;18.10;99.90;;;;;;4988633;28;20590;-67
2022/09/25 13:31:05;;;;;;;9.32;7.65;;;17.50;99.90;;;;;;4986677;28;20457;-65